Time;durP1;ratioP1;P1;durP2;ratioP2;P2;SDS_P1;SDS_P2;PMS_P1;PMS_P2;Temp;Humidity;BMP_temperature;BMP_pressure;BME280_temperature;BME280_humidity;BME280_pressure;Samples;Min_cycle;Max_cycle;Signal;HPM_P1;HPM_P2
2022/03/19 00:01:43;;;;;;;18.75;11.57;;;;;;;;;;4896477;29;20025;-71
2022/03/19 00:04:09;;;;;;;19.05;11.38;;;;;;;;;;4896270;29;20108;-72
2022/03/19 00:06:39;;;;;;;20.55;13.13;;;;;;;;;;4896455;29;20080;-70
2022/03/19 00:09:07;;;;;;;19.60;13.32;;;;;;;;;;4895629;29;20635;-71
2022/03/19 00:11:34;;;;;;;25.33;13.55;;;;;;;;;;4895455;29;20108;-72
2022/03/19 00:13:59;;;;;;;22.63;13.40;;;;;;;;;;4896007;29;20442;-72
2022/03/19 00:16:25;;;;;;;23.45;12.27;;;;;;;;;;4896459;29;20096;-70
2022/03/19 00:18:51;;;;;;;19.52;11.23;;;;;;;;;;4896349;29;20056;-68
2022/03/19 00:21:17;;;;;;;19.08;11.18;;;;;;;;;;4894043;29;20060;-68
2022/03/19 00:23:43;;;;;;;18.20;12.00;;;;;;;;;;4896627;29;20032;-69
2022/03/19 00:26:09;;;;;;;20.02;10.55;;;;;;;;;;4896432;29;20046;-66
2022/03/19 00:28:40;;;;;;;19.50;10.95;;;;;;;;;;4896691;29;20040;-68
2022/03/19 00:31:07;;;;;;;17.13;10.20;;;;;;;;;;4896432;29;20127;-68
2022/03/19 00:33:33;;;;;;;14.50;8.65;;;;;;;;;;4896555;29;20040;-70
2022/03/19 00:35:59;;;;;;;18.10;10.55;;;;;;;;;;4896305;29;20548;-68
2022/03/19 00:38:25;;;;;;;14.27;9.65;;;;;;;;;;4896156;29;20124;-68
2022/03/19 00:40:51;;;;;;;16.73;10.20;;;;;;;;;;4896203;29;20032;-68
2022/03/19 00:43:21;;;;;;;14.93;9.40;;;;;;;;;;4896742;29;20365;-68
2022/03/19 00:45:48;;;;;;;16.55;10.38;;;;;;;;;;4896466;29;20049;-69
2022/03/19 00:48:15;;;;;;;15.70;9.02;;;;;;;;;;4896213;29;20028;-68
2022/03/19 00:50:41;;;;;;;16.45;9.50;;;;;;;;;;4895628;29;20457;-69
2022/03/19 00:53:07;;;;;;;13.55;8.98;;;;;;;;;;4905053;29;20061;-68
2022/03/19 00:55:32;;;;;;;14.52;8.85;;;;;;;;;;4877112;29;20040;-69
2022/03/19 00:57:58;;;;;;;15.30;8.65;;;;;;;;;;4877310;29;20130;-68
2022/03/19 01:00:26;;;;;;;12.77;8.27;;;;;;;;;;4876923;29;20037;-69
2022/03/19 01:02:54;;;;;;;13.60;8.85;;;;;;;;;;4879510;29;20032;-66
2022/03/19 01:05:20;;;;;;;12.68;8.68;;;;;;;;;;4887990;29;20124;-72
2022/03/19 01:07:51;;;;;;;11.88;8.10;;;;;;;;;;4890843;29;20484;-69
2022/03/19 01:10:22;;;;;;;13.25;8.45;;;;;;;;;;4895920;29;20036;-69
2022/03/19 01:12:49;;;;;;;13.40;8.95;;;;;;;;;;4896327;29;20056;-68
2022/03/19 01:15:16;;;;;;;14.27;9.10;;;;;;;;;;4896035;29;20057;-68
2022/03/19 01:17:42;;;;;;;12.63;8.40;;;;;;;;;;4895783;29;20115;-68
2022/03/19 01:20:10;;;;;;;15.13;8.82;;;;;;;;;;4898537;29;20040;-70
2022/03/19 01:22:38;;;;;;;14.68;8.70;;;;;;;;;;4899366;29;20395;-70
2022/03/19 01:25:06;;;;;;;15.55;9.43;;;;;;;;;;4902952;29;21323;-69
2022/03/19 01:27:32;;;;;;;15.32;9.43;;;;;;;;;;4899478;29;20036;-67
2022/03/19 01:29:59;;;;;;;17.88;8.73;;;;;;;;;;4899333;29;20044;-71
2022/03/19 01:32:25;;;;;;;13.68;7.95;;;;;;;;;;4897942;29;20048;-72
2022/03/19 01:34:50;;;;;;;12.52;8.00;;;;;;;;;;4899151;29;20027;-73
2022/03/19 01:37:16;;;;;;;12.18;8.02;;;;;;;;;;4899627;29;20095;-68
2022/03/19 01:39:42;;;;;;;16.13;8.65;;;;;;;;;;4899508;29;20115;-68
2022/03/19 01:42:08;;;;;;;14.23;8.93;;;;;;;;;;4899509;29;20040;-69
2022/03/19 01:44:33;;;;;;;14.25;8.52;;;;;;;;;;4899519;29;20029;-68
2022/03/19 01:47:10;;;;;;;12.38;8.50;;;;;;;;;;4898857;29;20411;-69
2022/03/19 01:49:37;;;;;;;12.88;8.05;;;;;;;;;;4898613;29;20480;-67
2022/03/19 01:52:04;;;;;;;15.80;8.60;;;;;;;;;;4898573;29;20025;-70
2022/03/19 01:54:36;;;;;;;14.50;8.80;;;;;;;;;;4898778;29;20029;-69
2022/03/19 01:57:03;;;;;;;11.65;8.20;;;;;;;;;;4898941;29;20484;-68
2022/03/19 01:59:32;;;;;;;16.92;8.20;;;;;;;;;;4897329;29;20621;-72
2022/03/19 02:01:59;;;;;;;13.80;8.45;;;;;;;;;;4898846;29;20403;-68
2022/03/19 02:04:24;;;;;;;11.50;7.80;;;;;;;;;;4899138;29;20028;-69
2022/03/19 02:06:51;;;;;;;11.55;7.47;;;;;;;;;;4899061;29;20044;-68
2022/03/19 02:09:17;;;;;;;12.82;7.82;;;;;;;;;;4899195;29;20169;-69
2022/03/19 02:11:44;;;;;;;12.88;7.43;;;;;;;;;;4898963;29;20119;-71
2022/03/19 02:14:09;;;;;;;14.52;7.75;;;;;;;;;;4898711;29;20044;-69
2022/03/19 02:16:35;;;;;;;10.63;7.07;;;;;;;;;;4898684;29;20044;-69
2022/03/19 02:19:01;;;;;;;11.60;7.43;;;;;;;;;;4898668;29;20071;-69
2022/03/19 02:21:49;;;;;;;12.23;7.55;;;;;;;;;;4898450;29;20061;-69
2022/03/19 02:27:01;;;;;;;16.75;8.68;;;;;;;;;;4898467;29;20404;-69
2022/03/19 02:29:27;;;;;;;14.13;8.43;;;;;;;;;;4898504;29;20484;-69
2022/03/19 02:31:59;;;;;;;14.43;9.02;;;;;;;;;;4898022;29;20481;-68
2022/03/19 02:34:25;;;;;;;18.63;9.75;;;;;;;;;;4913004;29;20037;-69
2022/03/19 02:36:51;;;;;;;15.32;9.25;;;;;;;;;;4898280;29;20425;-69
2022/03/19 02:39:18;;;;;;;15.90;9.90;;;;;;;;;;4892161;29;20408;-69
2022/03/19 02:41:49;;;;;;;16.15;9.48;;;;;;;;;;4898208;29;20029;-69
2022/03/19 02:44:18;;;;;;;14.85;10.02;;;;;;;;;;4898299;29;20051;-69
2022/03/19 02:46:46;;;;;;;13.35;9.20;;;;;;;;;;4897833;29;20445;-69
2022/03/19 02:49:14;;;;;;;15.52;9.30;;;;;;;;;;4897632;29;20038;-69
2022/03/19 02:51:42;;;;;;;13.77;8.35;;;;;;;;;;4898404;29;20595;-67
2022/03/19 02:54:10;;;;;;;13.35;8.73;;;;;;;;;;4898050;29;20104;-68
2022/03/19 02:56:38;;;;;;;16.77;8.63;;;;;;;;;;4897995;29;20392;-69
2022/03/19 02:59:18;;;;;;;16.23;9.30;;;;;;;;;;4897723;29;20044;-69
2022/03/19 03:01:48;;;;;;;13.80;8.68;;;;;;;;;;4897753;29;20035;-73
2022/03/19 03:04:15;;;;;;;13.77;8.60;;;;;;;;;;4897569;29;20024;-75
2022/03/19 03:06:43;;;;;;;13.63;8.27;;;;;;;;;;4898088;29;20040;-73
2022/03/19 03:09:10;;;;;;;16.50;8.90;;;;;;;;;;4897922;29;20091;-70
2022/03/19 03:11:37;;;;;;;15.07;7.78;;;;;;;;;;4897845;29;20037;-70
2022/03/19 03:14:04;;;;;;;13.95;7.72;;;;;;;;;;4897530;29;20052;-70
2022/03/19 03:16:30;;;;;;;14.10;7.90;;;;;;;;;;4897646;29;20033;-71
2022/03/19 03:19:00;;;;;;;14.55;7.82;;;;;;;;;;4897166;29;20040;-69
2022/03/19 03:21:27;;;;;;;11.88;8.40;;;;;;;;;;4896388;29;20032;-67
2022/03/19 03:23:56;;;;;;;13.23;8.30;;;;;;;;;;4897779;29;20043;-71
2022/03/19 03:26:23;;;;;;;13.85;9.00;;;;;;;;;;4896441;29;20555;-72
2022/03/19 03:28:49;;;;;;;15.15;9.27;;;;;;;;;;4897015;29;20032;-73
2022/03/19 03:31:15;;;;;;;17.77;10.15;;;;;;;;;;4897321;29;20469;-69
2022/03/19 03:33:41;;;;;;;13.63;9.30;;;;;;;;;;4897412;29;20049;-74
2022/03/19 03:36:07;;;;;;;14.75;9.32;;;;;;;;;;4897439;29;20036;-73
2022/03/19 03:38:35;;;;;;;14.85;9.45;;;;;;;;;;4897317;29;20028;-72
2022/03/19 03:41:01;;;;;;;16.45;10.80;;;;;;;;;;4897172;29;20503;-70
2022/03/19 03:43:27;;;;;;;17.38;9.15;;;;;;;;;;4896302;29;20104;-74
2022/03/19 03:45:53;;;;;;;16.35;10.55;;;;;;;;;;4897010;29;20083;-71
2022/03/19 03:48:19;;;;;;;13.88;10.07;;;;;;;;;;4897225;29;20111;-72
2022/03/19 03:50:49;;;;;;;15.57;10.85;;;;;;;;;;4897206;29;20437;-75
2022/03/19 03:53:15;;;;;;;16.38;9.65;;;;;;;;;;4897276;29;20028;-71
2022/03/19 03:55:40;;;;;;;18.38;10.98;;;;;;;;;;4897096;29;20452;-74
2022/03/19 03:58:08;;;;;;;13.60;10.00;;;;;;;;;;4896735;29;20028;-73
2022/03/19 04:00:35;;;;;;;20.05;12.45;;;;;;;;;;4897136;29;20100;-74
2022/03/19 04:03:01;;;;;;;16.42;10.50;;;;;;;;;;4896806;29;20056;-76
2022/03/19 04:05:26;;;;;;;17.50;10.82;;;;;;;;;;4896768;29;20032;-73
2022/03/19 04:07:54;;;;;;;18.15;11.20;;;;;;;;;;4897104;29;20025;-75
2022/03/19 04:10:20;;;;;;;17.23;11.15;;;;;;;;;;4897051;29;20103;-73
2022/03/19 04:12:46;;;;;;;18.38;11.00;;;;;;;;;;4897294;29;20029;-72
2022/03/19 04:15:12;;;;;;;18.55;10.50;;;;;;;;;;4896831;29;20054;-71
2022/03/19 04:17:38;;;;;;;14.77;9.75;;;;;;;;;;4897045;29;20421;-71
2022/03/19 04:20:05;;;;;;;17.83;9.13;;;;;;;;;;4896648;29;20044;-71
2022/03/19 04:22:41;;;;;;;14.57;9.23;;;;;;;;;;4896817;29;20114;-70
2022/03/19 04:25:15;;;;;;;17.90;9.48;;;;;;;;;;4896260;29;20024;-70
2022/03/19 04:27:43;;;;;;;15.82;10.38;;;;;;;;;;4896537;29;20084;-70
2022/03/19 04:30:13;;;;;;;15.35;9.57;;;;;;;;;;4897018;29;20024;-74
2022/03/19 04:33:05;;;;;;;13.10;8.77;;;;;;;;;;4910752;29;20044;-68
2022/03/19 04:38:19;;;;;;;12.95;8.25;;;;;;;;;;4896279;29;20507;-70
2022/03/19 04:40:46;;;;;;;15.90;9.45;;;;;;;;;;4896476;29;20080;-69
2022/03/19 04:43:12;;;;;;;17.77;9.65;;;;;;;;;;4896768;29;20048;-69
2022/03/19 04:45:39;;;;;;;12.88;9.02;;;;;;;;;;4896626;29;20031;-69
2022/03/19 04:48:06;;;;;;;16.92;11.30;;;;;;;;;;4896172;29;20100;-68
2022/03/19 04:50:35;;;;;;;17.00;10.27;;;;;;;;;;4894452;29;20054;-72
2022/03/19 04:53:00;;;;;;;16.73;11.05;;;;;;;;;;4896264;29;20124;-68
2022/03/19 04:55:26;;;;;;;19.48;10.75;;;;;;;;;;4899619;29;20107;-69
2022/03/19 04:57:52;;;;;;;15.77;9.85;;;;;;;;;;4900370;29;20047;-68
2022/03/19 05:00:20;;;;;;;16.10;10.80;;;;;;;;;;4899590;29;20044;-70
2022/03/19 05:02:46;;;;;;;16.95;10.25;;;;;;;;;;4899121;29;20479;-68
2022/03/19 05:05:12;;;;;;;20.95;11.35;;;;;;;;;;4900811;29;20551;-69
2022/03/19 05:07:39;;;;;;;15.73;10.23;;;;;;;;;;4901427;29;20075;-70
2022/03/19 05:12:52;;;;;;;15.70;9.40;;;;;;;;;;4896016;29;20052;-68
2022/03/19 05:15:20;;;;;;;18.08;9.80;;;;;;;;;;4881641;29;20041;-68
2022/03/19 05:17:46;;;;;;;21.58;9.75;;;;;;;;;;4881836;29;20045;-75
2022/03/19 05:20:13;;;;;;;16.55;9.68;;;;;;;;;;4896524;29;20092;-76
2022/03/19 05:22:40;;;;;;;20.15;11.30;;;;;;;;;;4902462;29;20199;-74
2022/03/19 05:25:06;;;;;;;17.20;10.60;;;;;;;;;;4899065;29;20020;-73
2022/03/19 05:27:32;;;;;;;15.43;9.60;;;;;;;;;;4899883;29;20044;-74
2022/03/19 05:29:58;;;;;;;14.95;9.05;;;;;;;;;;4900207;29;20028;-74
2022/03/19 05:32:24;;;;;;;13.82;9.40;;;;;;;;;;4899970;29;20540;-76
2022/03/19 05:34:51;;;;;;;15.82;9.20;;;;;;;;;;4900262;29;20029;-74
2022/03/19 05:37:17;;;;;;;14.95;8.95;;;;;;;;;;4900092;29;20040;-74
2022/03/19 05:39:43;;;;;;;21.17;10.48;;;;;;;;;;4899919;29;20519;-74
2022/03/19 05:42:11;;;;;;;18.33;10.80;;;;;;;;;;4899806;29;20040;-79
2022/03/19 05:44:38;;;;;;;18.98;11.05;;;;;;;;;;4898717;29;20032;-75
2022/03/19 05:47:05;;;;;;;24.50;10.43;;;;;;;;;;4899805;29;20036;-74
2022/03/19 05:49:31;;;;;;;18.95;11.32;;;;;;;;;;4909289;29;20124;-75
2022/03/19 05:51:58;;;;;;;25.20;11.30;;;;;;;;;;4914571;29;20112;-79
2022/03/19 05:54:25;;;;;;;17.00;10.50;;;;;;;;;;4898979;29;20037;-79
2022/03/19 05:56:53;;;;;;;17.00;10.25;;;;;;;;;;4899276;29;20043;-79
2022/03/19 05:59:20;;;;;;;16.27;9.70;;;;;;;;;;4899828;29;20032;-79
2022/03/19 06:01:46;;;;;;;21.05;10.30;;;;;;;;;;4896994;29;20392;-77
2022/03/19 06:04:12;;;;;;;15.25;9.35;;;;;;;;;;4895595;29;20384;-77
2022/03/19 06:06:38;;;;;;;17.35;9.55;;;;;;;;;;4913553;29;20040;-78
2022/03/19 06:09:04;;;;;;;17.83;8.98;;;;;;;;;;4899975;29;20025;-78
2022/03/19 06:11:30;;;;;;;17.13;8.38;;;;;;;;;;4899723;29;20079;-79
2022/03/19 06:13:57;;;;;;;12.93;7.85;;;;;;;;;;4899361;29;20337;-79
2022/03/19 06:16:23;;;;;;;14.68;8.30;;;;;;;;;;4899405;29;20033;-73
2022/03/19 06:18:51;;;;;;;23.85;9.05;;;;;;;;;;4899093;29;20047;-77
2022/03/19 06:21:24;;;;;;;21.05;9.07;;;;;;;;;;4898900;29;20045;-80
2022/03/19 06:23:50;;;;;;;17.63;6.90;;;;;;;;;;4893783;29;20064;-77
2022/03/19 06:26:16;;;;;;;13.82;7.82;;;;;;;;;;4890828;29;20065;-74
2022/03/19 06:28:42;;;;;;;15.25;7.65;;;;;;;;;;4899543;29;20096;-77
2022/03/19 06:31:07;;;;;;;12.30;7.70;;;;;;;;;;4914242;29;20025;-76
2022/03/19 06:33:34;;;;;;;12.18;8.13;;;;;;;;;;4899359;29;20183;-78
2022/03/19 06:38:45;;;;;;;11.30;8.10;;;;;;;;;;4899222;29;20041;-77
2022/03/19 06:41:11;;;;;;;13.68;7.55;;;;;;;;;;4899150;29;20396;-77
2022/03/19 06:43:37;;;;;;;13.07;8.07;;;;;;;;;;4898957;29;20035;-78
2022/03/19 06:46:03;;;;;;;19.40;9.13;;;;;;;;;;4898858;29;20024;-77
2022/03/19 06:48:28;;;;;;;16.42;8.73;;;;;;;;;;4898620;29;20488;-76
2022/03/19 06:50:54;;;;;;;15.38;8.80;;;;;;;;;;4898879;29;20020;-76
2022/03/19 06:53:21;;;;;;;17.02;8.88;;;;;;;;;;4898701;29;20033;-74
2022/03/19 06:55:47;;;;;;;16.95;8.50;;;;;;;;;;4898698;29;20025;-76
2022/03/19 06:58:13;;;;;;;13.57;7.90;;;;;;;;;;4898824;29;20139;-76
2022/03/19 07:00:40;;;;;;;17.42;8.40;;;;;;;;;;4899122;29;20036;-74
2022/03/19 07:03:06;;;;;;;13.35;8.25;;;;;;;;;;4898850;29;20564;-75
2022/03/19 07:05:32;;;;;;;15.57;8.10;;;;;;;;;;4898512;29;20365;-75
2022/03/19 07:08:00;;;;;;;11.93;8.98;;;;;;;;;;4898917;29;20035;-79
2022/03/19 07:10:26;;;;;;;12.57;7.28;;;;;;;;;;4898654;29;20139;-77
2022/03/19 07:12:57;;;;;;;14.98;7.20;;;;;;;;;;4898843;29;20548;-76
2022/03/19 07:15:30;;;;;;;11.70;6.97;;;;;;;;;;4913021;29;20044;-79
2022/03/19 07:17:57;;;;;;;10.53;6.83;;;;;;;;;;4896087;29;20025;-74
2022/03/19 07:20:22;;;;;;;11.60;7.65;;;;;;;;;;4898180;29;20046;-75
2022/03/19 07:22:51;;;;;;;15.73;8.07;;;;;;;;;;4898085;29;20560;-75
2022/03/19 07:25:20;;;;;;;11.88;6.75;;;;;;;;;;4896781;29;20028;-73
2022/03/19 07:27:49;;;;;;;11.45;6.53;;;;;;;;;;4895735;29;20080;-75
2022/03/19 07:30:15;;;;;;;9.90;5.80;;;;;;;;;;4897832;29;20088;-74
2022/03/19 07:32:41;;;;;;;8.38;5.57;;;;;;;;;;4897362;29;20033;-73
2022/03/19 07:35:07;;;;;;;11.98;6.30;;;;;;;;;;4897049;29;20028;-76
2022/03/19 07:37:33;;;;;;;9.23;5.78;;;;;;;;;;4896787;29;20115;-75
2022/03/19 07:40:01;;;;;;;13.20;6.05;;;;;;;;;;4897940;29;20499;-74
2022/03/19 07:42:27;;;;;;;7.45;4.50;;;;;;;;;;4897688;29;20075;-75
2022/03/19 07:44:53;;;;;;;10.73;5.47;;;;;;;;;;4897674;29;20025;-74
2022/03/19 07:47:19;;;;;;;10.52;5.70;;;;;;;;;;4897737;29;20123;-73
2022/03/19 07:49:45;;;;;;;7.30;4.90;;;;;;;;;;4897676;29;20040;-75
2022/03/19 07:52:11;;;;;;;7.85;4.88;;;;;;;;;;4896587;29;20041;-74
2022/03/19 07:54:37;;;;;;;10.27;5.35;;;;;;;;;;4897525;29;20390;-76
2022/03/19 07:57:04;;;;;;;10.18;5.20;;;;;;;;;;4897592;29;20121;-73
2022/03/19 07:59:30;;;;;;;9.50;5.47;;;;;;;;;;4891471;29;20028;-75
2022/03/19 08:01:56;;;;;;;12.00;5.50;;;;;;;;;;4878826;29;20033;-74
2022/03/19 08:04:22;;;;;;;8.93;5.80;;;;;;;;;;4878578;29;20512;-74
2022/03/19 08:06:53;;;;;;;9.65;5.80;;;;;;;;;;4878920;29;20505;-76
2022/03/19 08:09:19;;;;;;;9.00;5.30;;;;;;;;;;4878792;29;20397;-75
2022/03/19 08:11:46;;;;;;;7.72;5.18;;;;;;;;;;4888570;29;20054;-77
2022/03/19 08:14:16;;;;;;;9.90;5.55;;;;;;;;;;4897538;29;20048;-76
2022/03/19 08:16:43;;;;;;;7.15;4.65;;;;;;;;;;4897347;29;20032;-76
2022/03/19 08:19:11;;;;;;;8.70;4.50;;;;;;;;;;4897410;29;20064;-76
2022/03/19 08:21:38;;;;;;;8.55;5.25;;;;;;;;;;4897464;29;20073;-75
2022/03/19 08:24:07;;;;;;;8.38;5.28;;;;;;;;;;4897007;29;20439;-75
2022/03/19 08:26:34;;;;;;;7.45;4.60;;;;;;;;;;4895884;29;20449;-74
2022/03/19 08:29:02;;;;;;;6.68;4.63;;;;;;;;;;4898453;29;20067;-75
2022/03/19 08:31:28;;;;;;;8.35;5.20;;;;;;;;;;4899637;29;20040;-76
2022/03/19 08:33:55;;;;;;;10.10;5.93;;;;;;;;;;4899147;29;20052;-72
2022/03/19 08:36:21;;;;;;;12.75;6.97;;;;;;;;;;4891415;29;20459;-76
2022/03/19 08:41:31;;;;;;;11.52;7.55;;;;;;;;;;4890107;29;20057;-72
2022/03/19 08:43:58;;;;;;;11.15;5.70;;;;;;;;;;4900376;29;20554;-73
2022/03/19 08:46:24;;;;;;;9.85;6.13;;;;;;;;;;4900760;29;20040;-74
2022/03/19 08:48:50;;;;;;;8.57;4.95;;;;;;;;;;4900646;29;20043;-76
2022/03/19 08:54:03;;;;;;;6.07;3.88;;;;;;;;;;4894859;29;20048;-75
2022/03/19 08:56:30;;;;;;;9.95;5.18;;;;;;;;;;4897981;29;20096;-76
2022/03/19 08:58:56;;;;;;;8.40;5.18;;;;;;;;;;4899322;29;20166;-76
2022/03/19 09:01:22;;;;;;;6.45;4.68;;;;;;;;;;4897035;29;20103;-73
2022/03/19 09:03:48;;;;;;;9.40;4.90;;;;;;;;;;4902885;29;20100;-73
2022/03/19 09:06:14;;;;;;;8.70;5.00;;;;;;;;;;4888148;29;20029;-74
2022/03/19 09:08:44;;;;;;;15.07;4.80;;;;;;;;;;4897718;29;20100;-75
2022/03/19 09:11:10;;;;;;;10.07;3.97;;;;;;;;;;4898475;29;20069;-73
2022/03/19 09:13:36;;;;;;;5.05;3.78;;;;;;;;;;4914456;29;20453;-76
2022/03/19 09:16:06;;;;;;;8.95;5.03;;;;;;;;;;4898806;29;20127;-77
2022/03/19 09:18:33;;;;;;;10.82;5.55;;;;;;;;;;4892940;29;20107;-77
2022/03/19 09:20:58;;;;;;;10.70;5.35;;;;;;;;;;4898836;29;20043;-77
2022/03/19 09:23:25;;;;;;;8.93;4.70;;;;;;;;;;4898489;29;20041;-77
2022/03/19 09:25:51;;;;;;;8.57;4.75;;;;;;;;;;4896382;29;20447;-75
2022/03/19 09:28:17;;;;;;;10.32;5.18;;;;;;;;;;4898622;29;20437;-77
2022/03/19 09:30:43;;;;;;;7.20;5.10;;;;;;;;;;4899070;29;20104;-76
2022/03/19 09:33:09;;;;;;;12.98;5.70;;;;;;;;;;4898832;29;20096;-77
2022/03/19 09:35:35;;;;;;;8.80;5.43;;;;;;;;;;4898881;29;20028;-75
2022/03/19 09:38:02;;;;;;;11.40;5.75;;;;;;;;;;4897538;29;20077;-78
2022/03/19 09:40:28;;;;;;;9.07;5.38;;;;;;;;;;4896720;29;20135;-75
2022/03/19 09:42:56;;;;;;;12.85;6.25;;;;;;;;;;4896008;29;20124;-77
2022/03/19 09:45:23;;;;;;;10.25;5.72;;;;;;;;;;4897696;29;20021;-76
2022/03/19 09:47:51;;;;;;;9.50;5.65;;;;;;;;;;4898730;29;20032;-75
2022/03/19 09:50:17;;;;;;;9.82;6.38;;;;;;;;;;4898904;29;20083;-75
2022/03/19 09:52:44;;;;;;;11.98;5.53;;;;;;;;;;4899641;29;20036;-78
2022/03/19 09:55:14;;;;;;;9.52;6.18;;;;;;;;;;4899507;29;20043;-79
2022/03/19 09:57:40;;;;;;;9.52;4.70;;;;;;;;;;4899515;29;20503;-76
2022/03/19 10:00:06;;;;;;;9.45;4.85;;;;;;;;;;4899156;29;20032;-78
2022/03/19 10:02:32;;;;;;;7.53;4.60;;;;;;;;;;4899234;29;20044;-76
2022/03/19 10:08:35;;;;;;;9.68;5.65;;;;;;;;;;4899402;29;20452;-76
2022/03/19 10:10:35;;;;;;;7.63;4.35;;;;;;;;;;4899893;29;20415;-74
2022/03/19 10:13:09;;;;;;;10.27;5.47;;;;;;;;;;4899280;29;20028;-78
2022/03/19 10:15:42;;;;;;;;;;;;;;;;;;4899652;29;20056;-74
2022/03/19 10:18:09;;;;;;;11.52;5.40;;;;;;;;;;4899303;29;20367;-76
2022/03/19 10:20:35;;;;;;;7.47;5.05;;;;;;;;;;4899172;29;20175;-78
2022/03/19 10:23:01;;;;;;;7.13;3.70;;;;;;;;;;4899334;29;20040;-76
2022/03/19 10:25:28;;;;;;;8.43;4.90;;;;;;;;;;4899782;29;20025;-77
2022/03/19 10:28:00;;;;;;;10.38;5.22;;;;;;;;;;4885970;29;20041;-78
2022/03/19 10:30:37;;;;;;;10.40;5.30;;;;;;;;;;4892068;29;20029;-76
2022/03/19 10:33:06;;;;;;;6.22;3.58;;;;;;;;;;4885891;29;20024;-78
2022/03/19 10:35:34;;;;;;;10.02;6.03;;;;;;;;;;4887271;29;20031;-75
2022/03/19 10:38:05;;;;;;;10.10;5.22;;;;;;;;;;4887813;29;20090;-75
2022/03/19 10:40:43;;;;;;;8.40;4.68;;;;;;;;;;4891713;29;20048;-78
2022/03/19 10:43:10;;;;;;;8.95;4.65;;;;;;;;;;4883892;29;20124;-80
2022/03/19 10:45:48;;;;;;;6.75;4.30;;;;;;;;;;4887617;29;20033;-78
2022/03/19 10:48:25;;;;;;;11.57;5.22;;;;;;;;;;4889344;29;20035;-80
2022/03/19 10:50:52;;;;;;;12.02;5.30;;;;;;;;;;4891345;29;20037;-76
2022/03/19 10:53:20;;;;;;;7.80;4.45;;;;;;;;;;4888339;29;20032;-78
2022/03/19 10:55:46;;;;;;;7.75;4.88;;;;;;;;;;4892023;29;20029;-76
2022/03/19 10:58:12;;;;;;;7.35;4.55;;;;;;;;;;4886889;29;20116;-78
2022/03/19 11:00:38;;;;;;;7.85;4.82;;;;;;;;;;4885846;29;20037;-75
2022/03/19 11:03:12;;;;;;;8.15;4.43;;;;;;;;;;4890478;29;20028;-75
2022/03/19 11:05:40;;;;;;;9.82;4.93;;;;;;;;;;4896455;29;20044;-75
2022/03/19 11:08:07;;;;;;;4.80;3.33;;;;;;;;;;4887556;29;20044;-74
2022/03/19 11:10:35;;;;;;;8.18;4.85;;;;;;;;;;4886675;29;20040;-74
2022/03/19 11:13:03;;;;;;;8.43;4.72;;;;;;;;;;4886401;29;20029;-73
2022/03/19 11:15:35;;;;;;;11.73;5.05;;;;;;;;;;4889302;29;20096;-75
2022/03/19 11:18:07;;;;;;;7.90;4.60;;;;;;;;;;4888133;29;20433;-77
2022/03/19 11:20:34;;;;;;;10.00;4.90;;;;;;;;;;4896070;29;20457;-76
2022/03/19 11:23:01;;;;;;;7.60;5.30;;;;;;;;;;4896245;29;20056;-77
2022/03/19 11:25:27;;;;;;;10.13;5.03;;;;;;;;;;4897528;29;20040;-77
2022/03/19 11:27:58;;;;;;;10.52;5.20;;;;;;;;;;4890164;29;20029;-78
2022/03/19 11:30:30;;;;;;;8.65;5.25;;;;;;;;;;4912489;29;20100;-76
2022/03/19 11:33:00;;;;;;;9.35;5.10;;;;;;;;;;4896774;29;20036;-78
2022/03/19 11:35:27;;;;;;;13.82;4.78;;;;;;;;;;4897955;29;20033;-79
2022/03/19 11:38:11;;;;;;;8.70;5.15;;;;;;;;;;4895369;29;20025;-78
2022/03/19 11:40:42;;;;;;;11.15;5.28;;;;;;;;;;4897942;29;20076;-77
2022/03/19 11:43:09;;;;;;;8.73;5.10;;;;;;;;;;4910817;29;20068;-77
2022/03/19 11:45:56;;;;;;;8.20;4.93;;;;;;;;;;4897953;29;20122;-73
2022/03/19 11:48:34;;;;;;;6.70;4.25;;;;;;;;;;4898196;29;20047;-76
2022/03/19 11:51:20;;;;;;;7.97;4.90;;;;;;;;;;4896503;29;20046;-77
2022/03/19 11:53:56;;;;;;;10.70;5.30;;;;;;;;;;4896394;29;20044;-72
2022/03/19 11:56:24;;;;;;;7.50;4.55;;;;;;;;;;4897635;29;20047;-76
2022/03/19 11:58:52;;;;;;;8.02;4.72;;;;;;;;;;4897525;29;20036;-72
2022/03/19 12:01:38;;;;;;;8.70;5.13;;;;;;;;;;4911604;29;20076;-75
2022/03/19 12:04:13;;;;;;;11.43;5.13;;;;;;;;;;4895743;29;20123;-73
2022/03/19 12:06:52;;;;;;;11.07;5.10;;;;;;;;;;4896554;29;20048;-76
2022/03/19 12:09:19;;;;;;;7.75;4.40;;;;;;;;;;4893054;29;20481;-75
2022/03/19 12:12:07;;;;;;;8.98;4.82;;;;;;;;;;4895096;29;20622;-78
2022/03/19 12:14:35;;;;;;;8.02;4.68;;;;;;;;;;4895972;29;20048;-76
2022/03/19 12:17:28;;;;;;;7.57;4.53;;;;;;;;;;4911482;29;20564;-74
2022/03/19 12:20:03;;;;;;;9.47;4.70;;;;;;;;;;4898032;29;20037;-75
2022/03/19 12:22:32;;;;;;;8.18;4.28;;;;;;;;;;4896042;29;20047;-77
2022/03/19 12:25:23;;;;;;;9.45;4.85;;;;;;;;;;4895459;29;20131;-77
2022/03/19 12:27:56;;;;;;;6.93;4.00;;;;;;;;;;4895639;29;20072;-76
2022/03/19 12:30:25;;;;;;;7.65;4.47;;;;;;;;;;4896439;29;20043;-80
2022/03/19 12:32:57;;;;;;;6.55;4.20;;;;;;;;;;4895003;29;20043;-78
2022/03/19 12:35:25;;;;;;;5.43;3.72;;;;;;;;;;4896476;29;20466;-77
2022/03/19 12:37:54;;;;;;;12.82;7.05;;;;;;;;;;4895615;29;20127;-75
2022/03/19 12:40:25;;;;;;;14.35;7.28;;;;;;;;;;4895879;29;20040;-78
2022/03/19 12:42:58;;;;;;;7.82;5.05;;;;;;;;;;4896758;29;20033;-78
2022/03/19 12:45:36;;;;;;;8.52;4.80;;;;;;;;;;4897012;29;20092;-76
2022/03/19 12:48:14;;;;;;;12.35;4.88;;;;;;;;;;4895680;29;20100;-75
2022/03/19 12:50:47;;;;;;;9.20;5.00;;;;;;;;;;4896282;29;20485;-77
2022/03/19 12:53:13;;;;;;;7.05;4.50;;;;;;;;;;4897279;29;20043;-75
2022/03/19 12:55:39;;;;;;;6.50;4.28;;;;;;;;;;4895845;29;20040;-77
2022/03/19 12:58:05;;;;;;;9.40;5.05;;;;;;;;;;4896446;29;20059;-75
2022/03/19 13:00:31;;;;;;;8.70;5.28;;;;;;;;;;4896456;29;20520;-74
2022/03/19 13:02:57;;;;;;;11.00;4.70;;;;;;;;;;4896425;29;20040;-74
2022/03/19 13:05:23;;;;;;;5.72;3.58;;;;;;;;;;4895972;29;20384;-72
2022/03/19 13:08:07;;;;;;;8.95;4.40;;;;;;;;;;4895472;29;20122;-74
2022/03/19 13:10:51;;;;;;;10.15;4.60;;;;;;;;;;4895641;29;20044;-74
2022/03/19 13:13:18;;;;;;;7.78;4.95;;;;;;;;;;4896881;29;20500;-72
2022/03/19 13:15:54;;;;;;;9.60;4.63;;;;;;;;;;4898314;29;20589;-74
2022/03/19 13:18:31;;;;;;;7.90;4.80;;;;;;;;;;4900415;29;20029;-73
2022/03/19 13:20:57;;;;;;;10.02;4.95;;;;;;;;;;4899771;29;20036;-72
2022/03/19 13:23:23;;;;;;;8.57;5.22;;;;;;;;;;4909297;29;20028;-75
2022/03/19 13:25:50;;;;;;;9.80;4.72;;;;;;;;;;4905891;29;20033;-73
2022/03/19 13:28:15;;;;;;;8.60;5.45;;;;;;;;;;4900479;29;20111;-73
2022/03/19 13:30:44;;;;;;;6.20;3.60;;;;;;;;;;4900020;29;20159;-71
2022/03/19 13:33:15;;;;;;;6.45;4.85;;;;;;;;;;4899513;29;20025;-74
2022/03/19 13:35:47;;;;;;;7.13;5.03;;;;;;;;;;4899066;29;20033;-73
2022/03/19 13:38:15;;;;;;;9.13;4.38;;;;;;;;;;4899343;29;20052;-75
2022/03/19 13:40:42;;;;;;;9.07;5.30;;;;;;;;;;4897352;29;20088;-74
2022/03/19 13:43:08;;;;;;;11.02;4.70;;;;;;;;;;4897940;29;20043;-74
2022/03/19 13:45:34;;;;;;;7.38;4.43;;;;;;;;;;4899546;29;20029;-76
2022/03/19 13:48:08;;;;;;;10.40;5.32;;;;;;;;;;4899882;29;20485;-77
2022/03/19 13:50:36;;;;;;;10.25;5.45;;;;;;;;;;4899262;29;20392;-75
2022/03/19 13:53:03;;;;;;;9.45;4.78;;;;;;;;;;4899376;29;20111;-79
2022/03/19 13:55:29;;;;;;;7.43;5.00;;;;;;;;;;4899414;29;20107;-76
2022/03/19 13:57:59;;;;;;;6.82;4.88;;;;;;;;;;4898463;29;20116;-79
2022/03/19 14:00:27;;;;;;;18.02;5.30;;;;;;;;;;4899165;29;20120;-72
2022/03/19 14:02:57;;;;;;;9.73;5.93;;;;;;;;;;4899860;29;20404;-73
2022/03/19 14:05:28;;;;;;;6.35;4.05;;;;;;;;;;4898525;29;20032;-80
2022/03/19 14:07:57;;;;;;;6.60;3.70;;;;;;;;;;4899393;29;20040;-74
2022/03/19 14:10:28;;;;;;;8.75;5.57;;;;;;;;;;4898692;29;20040;-73
2022/03/19 14:13:11;;;;;;;10.60;6.00;;;;;;;;;;4898450;29;20037;-73
2022/03/19 14:15:37;;;;;;;10.70;5.75;;;;;;;;;;4898550;29;20041;-74
2022/03/19 14:18:03;;;;;;;6.68;4.57;;;;;;;;;;4897826;29;20044;-76
2022/03/19 14:20:29;;;;;;;11.60;6.53;;;;;;;;;;4897474;29;20122;-74
2022/03/19 14:22:55;;;;;;;9.05;5.32;;;;;;;;;;4898982;29;20111;-75
2022/03/19 14:25:21;;;;;;;10.77;6.60;;;;;;;;;;4899341;29;20112;-72
2022/03/19 14:27:48;;;;;;;9.88;5.40;;;;;;;;;;4898142;29;20531;-73
2022/03/19 14:30:14;;;;;;;10.13;5.18;;;;;;;;;;4897548;29;20120;-76
2022/03/19 14:32:42;;;;;;;8.48;5.60;;;;;;;;;;4898097;29;20025;-73
2022/03/19 14:35:39;;;;;;;11.85;6.53;;;;;;;;;;4899180;29;20045;-76
2022/03/19 14:38:05;;;;;;;8.77;5.15;;;;;;;;;;4898316;29;20468;-75
2022/03/19 14:40:31;;;;;;;7.13;3.80;;;;;;;;;;4899301;29;20043;-79
2022/03/19 14:42:58;;;;;;;11.55;5.78;;;;;;;;;;4899424;29;20119;-73
2022/03/19 14:45:23;;;;;;;9.35;5.50;;;;;;;;;;4899233;29;20464;-82
2022/03/19 14:47:49;;;;;;;7.97;5.65;;;;;;;;;;4898316;29;20092;-77
2022/03/19 14:50:15;;;;;;;8.45;4.90;;;;;;;;;;4898886;29;20519;-74
2022/03/19 14:52:41;;;;;;;9.60;5.53;;;;;;;;;;4898420;29;20380;-73
2022/03/19 14:55:08;;;;;;;9.02;6.03;;;;;;;;;;4898977;29;20080;-75
2022/03/19 14:57:34;;;;;;;6.75;4.82;;;;;;;;;;4898146;29;20139;-74
2022/03/19 15:00:00;;;;;;;9.48;6.20;;;;;;;;;;4898756;29;20065;-81